sensor_id;sensor_type;location;lat;lon;timestamp;P1;durP1;ratioP1;P2;durP2;ratioP2
5805;SDS011;2929;50.810;8.342;2023-04-26T00:00:08;4.70;;;2.70;;
5805;SDS011;2929;50.810;8.342;2023-04-26T00:02:37;5.33;;;2.90;;
5805;SDS011;2929;50.810;8.342;2023-04-26T00:05:05;9.97;;;2.60;;
5805;SDS011;2929;50.810;8.342;2023-04-26T00:07:33;4.67;;;2.77;;
5805;SDS011;2929;50.810;8.342;2023-04-26T00:10:03;7.03;;;2.40;;
5805;SDS011;2929;50.810;8.342;2023-04-26T00:12:31;3.87;;;2.90;;
5805;SDS011;2929;50.810;8.342;2023-04-26T00:14:58;2.90;;;1.87;;
5805;SDS011;2929;50.810;8.342;2023-04-26T00:17:25;4.40;;;2.63;;
5805;SDS011;2929;50.810;8.342;2023-04-26T00:19:53;5.47;;;2.30;;
5805;SDS011;2929;50.810;8.342;2023-04-26T00:22:21;6.20;;;2.03;;
5805;SDS011;2929;50.810;8.342;2023-04-26T00:24:49;6.03;;;3.00;;
5805;SDS011;2929;50.810;8.342;2023-04-26T00:27:17;3.80;;;2.67;;
5805;SDS011;2929;50.810;8.342;2023-04-26T00:29:45;7.20;;;3.13;;
5805;SDS011;2929;50.810;8.342;2023-04-26T00:32:12;10.97;;;3.07;;
5805;SDS011;2929;50.810;8.342;2023-04-26T00:34:39;3.83;;;2.23;;
5805;SDS011;2929;50.810;8.342;2023-04-26T00:37:06;7.57;;;3.23;;
5805;SDS011;2929;50.810;8.342;2023-04-26T00:39:33;9.07;;;2.97;;
5805;SDS011;2929;50.810;8.342;2023-04-26T00:42:00;4.63;;;2.83;;
5805;SDS011;2929;50.810;8.342;2023-04-26T00:44:29;6.37;;;2.20;;
5805;SDS011;2929;50.810;8.342;2023-04-26T00:46:56;5.53;;;2.80;;
5805;SDS011;2929;50.810;8.342;2023-04-26T00:49:24;5.60;;;2.93;;
5805;SDS011;2929;50.810;8.342;2023-04-26T00:51:51;4.50;;;2.23;;
5805;SDS011;2929;50.810;8.342;2023-04-26T00:54:19;4.13;;;2.50;;
5805;SDS011;2929;50.810;8.342;2023-04-26T00:56:47;8.10;;;2.50;;
5805;SDS011;2929;50.810;8.342;2023-04-26T00:59:16;4.13;;;2.60;;
5805;SDS011;2929;50.810;8.342;2023-04-26T01:01:46;3.87;;;2.37;;
5805;SDS011;2929;50.810;8.342;2023-04-26T01:04:13;6.60;;;2.83;;
5805;SDS011;2929;50.810;8.342;2023-04-26T01:06:41;8.10;;;3.50;;
5805;SDS011;2929;50.810;8.342;2023-04-26T01:09:09;4.73;;;2.73;;
5805;SDS011;2929;50.810;8.342;2023-04-26T01:11:39;5.87;;;2.87;;
5805;SDS011;2929;50.810;8.342;2023-04-26T01:14:08;10.90;;;3.70;;
5805;SDS011;2929;50.810;8.342;2023-04-26T01:16:36;4.17;;;2.47;;
5805;SDS011;2929;50.810;8.342;2023-04-26T01:19:09;11.90;;;3.30;;
5805;SDS011;2929;50.810;8.342;2023-04-26T01:21:37;5.90;;;3.07;;
5805;SDS011;2929;50.810;8.342;2023-04-26T01:24:07;5.63;;;2.93;;
5805;SDS011;2929;50.810;8.342;2023-04-26T01:26:36;6.73;;;3.87;;
5805;SDS011;2929;50.810;8.342;2023-04-26T01:29:13;9.93;;;3.70;;
5805;SDS011;2929;50.810;8.342;2023-04-26T01:31:41;8.30;;;3.57;;
5805;SDS011;2929;50.810;8.342;2023-04-26T01:34:09;7.63;;;3.07;;
5805;SDS011;2929;50.810;8.342;2023-04-26T01:36:36;13.63;;;3.60;;
5805;SDS011;2929;50.810;8.342;2023-04-26T01:39:03;12.93;;;3.90;;
5805;SDS011;2929;50.810;8.342;2023-04-26T01:41:31;5.63;;;3.00;;
5805;SDS011;2929;50.810;8.342;2023-04-26T01:43:59;8.77;;;2.93;;
5805;SDS011;2929;50.810;8.342;2023-04-26T01:46:26;7.67;;;2.93;;
5805;SDS011;2929;50.810;8.342;2023-04-26T01:48:53;6.40;;;3.80;;
5805;SDS011;2929;50.810;8.342;2023-04-26T01:51:22;7.40;;;2.30;;
5805;SDS011;2929;50.810;8.342;2023-04-26T01:53:49;6.43;;;3.30;;
5805;SDS011;2929;50.810;8.342;2023-04-26T01:56:16;6.33;;;2.93;;
5805;SDS011;2929;50.810;8.342;2023-04-26T01:58:45;4.30;;;2.63;;
5805;SDS011;2929;50.810;8.342;2023-04-26T02:01:12;4.67;;;2.93;;
5805;SDS011;2929;50.810;8.342;2023-04-26T02:03:39;5.70;;;3.20;;
5805;SDS011;2929;50.810;8.342;2023-04-26T02:06:06;11.17;;;3.63;;
5805;SDS011;2929;50.810;8.342;2023-04-26T02:08:34;5.03;;;3.40;;
5805;SDS011;2929;50.810;8.342;2023-04-26T02:11:01;5.83;;;2.93;;
5805;SDS011;2929;50.810;8.342;2023-04-26T02:13:28;8.50;;;3.20;;
5805;SDS011;2929;50.810;8.342;2023-04-26T02:15:56;4.00;;;2.40;;
5805;SDS011;2929;50.810;8.342;2023-04-26T02:18:24;5.90;;;2.60;;
5805;SDS011;2929;50.810;8.342;2023-04-26T02:20:51;6.43;;;2.40;;
5805;SDS011;2929;50.810;8.342;2023-04-26T02:23:18;5.20;;;2.70;;
5805;SDS011;2929;50.810;8.342;2023-04-26T02:25:47;4.40;;;2.43;;
5805;SDS011;2929;50.810;8.342;2023-04-26T02:28:15;6.00;;;2.33;;
5805;SDS011;2929;50.810;8.342;2023-04-26T02:30:43;4.50;;;2.73;;
5805;SDS011;2929;50.810;8.342;2023-04-26T02:33:11;9.90;;;2.77;;
5805;SDS011;2929;50.810;8.342;2023-04-26T02:35:38;15.77;;;3.17;;
5805;SDS011;2929;50.810;8.342;2023-04-26T02:38:05;4.47;;;2.60;;
5805;SDS011;2929;50.810;8.342;2023-04-26T02:40:32;6.97;;;2.87;;
5805;SDS011;2929;50.810;8.342;2023-04-26T02:42:59;6.80;;;2.73;;
5805;SDS011;2929;50.810;8.342;2023-04-26T02:45:26;6.40;;;2.50;;
5805;SDS011;2929;50.810;8.342;2023-04-26T02:47:53;9.57;;;2.90;;
5805;SDS011;2929;50.810;8.342;2023-04-26T02:50:22;4.53;;;2.33;;
5805;SDS011;2929;50.810;8.342;2023-04-26T02:52:50;6.87;;;2.87;;
5805;SDS011;2929;50.810;8.342;2023-04-26T02:55:17;4.07;;;2.63;;
5805;SDS011;2929;50.810;8.342;2023-04-26T02:57:44;10.07;;;2.57;;
5805;SDS011;2929;50.810;8.342;2023-04-26T03:00:12;6.20;;;2.83;;
5805;SDS011;2929;50.810;8.342;2023-04-26T03:02:39;5.47;;;2.67;;
5805;SDS011;2929;50.810;8.342;2023-04-26T03:05:07;9.23;;;2.40;;
5805;SDS011;2929;50.810;8.342;2023-04-26T03:07:36;5.30;;;2.93;;
5805;SDS011;2929;50.810;8.342;2023-04-26T03:10:03;4.83;;;2.40;;
5805;SDS011;2929;50.810;8.342;2023-04-26T03:12:33;5.23;;;1.93;;
5805;SDS011;2929;50.810;8.342;2023-04-26T03:15:00;3.17;;;2.10;;
5805;SDS011;2929;50.810;8.342;2023-04-26T03:17:29;6.40;;;2.87;;
5805;SDS011;2929;50.810;8.342;2023-04-26T03:19:56;4.50;;;2.20;;
5805;SDS011;2929;50.810;8.342;2023-04-26T03:22:23;5.17;;;2.63;;
5805;SDS011;2929;50.810;8.342;2023-04-26T03:24:52;5.70;;;2.20;;
5805;SDS011;2929;50.810;8.342;2023-04-26T03:27:19;4.47;;;2.07;;
5805;SDS011;2929;50.810;8.342;2023-04-26T03:29:46;3.50;;;2.40;;
5805;SDS011;2929;50.810;8.342;2023-04-26T03:32:13;2.93;;;2.00;;
5805;SDS011;2929;50.810;8.342;2023-04-26T03:34:40;5.80;;;2.90;;
5805;SDS011;2929;50.810;8.342;2023-04-26T03:37:07;5.77;;;3.03;;
5805;SDS011;2929;50.810;8.342;2023-04-26T03:39:37;6.40;;;3.07;;
5805;SDS011;2929;50.810;8.342;2023-04-26T03:42:05;4.70;;;2.70;;
5805;SDS011;2929;50.810;8.342;2023-04-26T03:44:33;9.67;;;2.30;;
5805;SDS011;2929;50.810;8.342;2023-04-26T03:47:01;5.13;;;2.40;;
5805;SDS011;2929;50.810;8.342;2023-04-26T03:49:30;5.00;;;2.47;;
5805;SDS011;2929;50.810;8.342;2023-04-26T03:51:57;12.53;;;3.60;;
5805;SDS011;2929;50.810;8.342;2023-04-26T03:54:24;3.60;;;2.20;;
5805;SDS011;2929;50.810;8.342;2023-04-26T03:56:51;4.70;;;2.13;;
5805;SDS011;2929;50.810;8.342;2023-04-26T03:59:20;10.70;;;2.90;;
5805;SDS011;2929;50.810;8.342;2023-04-26T04:01:47;8.33;;;2.60;;
5805;SDS011;2929;50.810;8.342;2023-04-26T04:04:14;5.77;;;2.60;;
5805;SDS011;2929;50.810;8.342;2023-04-26T04:06:42;6.23;;;2.70;;
5805;SDS011;2929;50.810;8.342;2023-04-26T04:09:10;9.63;;;3.00;;
5805;SDS011;2929;50.810;8.342;2023-04-26T04:11:37;6.67;;;3.40;;
5805;SDS011;2929;50.810;8.342;2023-04-26T04:14:05;8.60;;;6.30;;
5805;SDS011;2929;50.810;8.342;2023-04-26T04:16:33;6.37;;;4.17;;
5805;SDS011;2929;50.810;8.342;2023-04-26T04:19:01;18.00;;;3.50;;
5805;SDS011;2929;50.810;8.342;2023-04-26T04:21:28;7.93;;;3.33;;
5805;SDS011;2929;50.810;8.342;2023-04-26T04:23:56;8.90;;;4.70;;
5805;SDS011;2929;50.810;8.342;2023-04-26T04:26:24;7.50;;;3.60;;
5805;SDS011;2929;50.810;8.342;2023-04-26T04:28:52;11.50;;;4.73;;
5805;SDS011;2929;50.810;8.342;2023-04-26T04:31:19;8.57;;;4.77;;
5805;SDS011;2929;50.810;8.342;2023-04-26T04:33:48;13.33;;;6.37;;
5805;SDS011;2929;50.810;8.342;2023-04-26T04:36:16;8.93;;;5.03;;
5805;SDS011;2929;50.810;8.342;2023-04-26T04:38:44;10.40;;;4.57;;
5805;SDS011;2929;50.810;8.342;2023-04-26T04:41:13;9.27;;;4.10;;
5805;SDS011;2929;50.810;8.342;2023-04-26T04:43:40;8.63;;;4.33;;
5805;SDS011;2929;50.810;8.342;2023-04-26T04:46:08;11.43;;;3.70;;
5805;SDS011;2929;50.810;8.342;2023-04-26T04:48:35;11.03;;;4.13;;
5805;SDS011;2929;50.810;8.342;2023-04-26T04:51:05;18.90;;;5.03;;
5805;SDS011;2929;50.810;8.342;2023-04-26T04:53:33;8.13;;;3.93;;
5805;SDS011;2929;50.810;8.342;2023-04-26T04:56:01;5.17;;;3.03;;
5805;SDS011;2929;50.810;8.342;2023-04-26T04:58:28;10.77;;;3.20;;
5805;SDS011;2929;50.810;8.342;2023-04-26T05:00:56;6.33;;;2.60;;
5805;SDS011;2929;50.810;8.342;2023-04-26T05:03:27;7.60;;;3.10;;
5805;SDS011;2929;50.810;8.342;2023-04-26T05:05:56;4.80;;;2.80;;
5805;SDS011;2929;50.810;8.342;2023-04-26T05:08:25;6.20;;;3.17;;
5805;SDS011;2929;50.810;8.342;2023-04-26T05:10:53;6.37;;;2.50;;
5805;SDS011;2929;50.810;8.342;2023-04-26T05:13:21;5.27;;;3.13;;
5805;SDS011;2929;50.810;8.342;2023-04-26T05:15:48;9.27;;;3.10;;
5805;SDS011;2929;50.810;8.342;2023-04-26T05:18:15;11.60;;;3.77;;
5805;SDS011;2929;50.810;8.342;2023-04-26T05:20:42;9.40;;;4.83;;
5805;SDS011;2929;50.810;8.342;2023-04-26T05:23:10;10.10;;;4.97;;
5805;SDS011;2929;50.810;8.342;2023-04-26T05:25:38;4.93;;;3.77;;
5805;SDS011;2929;50.810;8.342;2023-04-26T05:28:25;6.80;;;3.60;;
5805;SDS011;2929;50.810;8.342;2023-04-26T05:31:15;7.83;;;3.97;;
5805;SDS011;2929;50.810;8.342;2023-04-26T05:34:18;9.47;;;4.17;;
5805;SDS011;2929;50.810;8.342;2023-04-26T05:36:49;11.20;;;3.70;;
5805;SDS011;2929;50.810;8.342;2023-04-26T05:39:16;9.13;;;4.00;;
5805;SDS011;2929;50.810;8.342;2023-04-26T05:41:46;8.43;;;4.30;;
5805;SDS011;2929;50.810;8.342;2023-04-26T05:44:14;10.90;;;3.63;;
5805;SDS011;2929;50.810;8.342;2023-04-26T05:46:44;11.67;;;4.83;;
5805;SDS011;2929;50.810;8.342;2023-04-26T05:49:12;7.60;;;4.57;;
5805;SDS011;2929;50.810;8.342;2023-04-26T05:51:39;17.70;;;5.30;;
5805;SDS011;2929;50.810;8.342;2023-04-26T05:54:06;17.20;;;5.47;;
5805;SDS011;2929;50.810;8.342;2023-04-26T05:56:33;16.53;;;5.40;;
5805;SDS011;2929;50.810;8.342;2023-04-26T05:59:02;13.20;;;5.00;;
5805;SDS011;2929;50.810;8.342;2023-04-26T06:01:31;10.80;;;6.10;;
5805;SDS011;2929;50.810;8.342;2023-04-26T06:03:59;12.17;;;5.70;;
5805;SDS011;2929;50.810;8.342;2023-04-26T06:06:31;15.03;;;5.10;;
5805;SDS011;2929;50.810;8.342;2023-04-26T06:08:58;10.90;;;5.70;;
5805;SDS011;2929;50.810;8.342;2023-04-26T06:11:25;13.10;;;5.73;;
5805;SDS011;2929;50.810;8.342;2023-04-26T06:13:53;13.73;;;5.57;;
5805;SDS011;2929;50.810;8.342;2023-04-26T06:16:21;12.27;;;6.00;;
5805;SDS011;2929;50.810;8.342;2023-04-26T06:18:49;13.03;;;6.47;;
5805;SDS011;2929;50.810;8.342;2023-04-26T06:21:16;13.33;;;6.30;;
5805;SDS011;2929;50.810;8.342;2023-04-26T06:23:43;11.73;;;5.40;;
5805;SDS011;2929;50.810;8.342;2023-04-26T06:26:10;12.73;;;6.47;;
5805;SDS011;2929;50.810;8.342;2023-04-26T06:28:38;7.80;;;5.23;;
5805;SDS011;2929;50.810;8.342;2023-04-26T06:31:06;16.33;;;5.63;;
5805;SDS011;2929;50.810;8.342;2023-04-26T06:33:35;10.50;;;5.80;;
5805;SDS011;2929;50.810;8.342;2023-04-26T06:36:03;16.60;;;5.00;;
5805;SDS011;2929;50.810;8.342;2023-04-26T06:38:30;15.27;;;6.13;;
5805;SDS011;2929;50.810;8.342;2023-04-26T06:40:57;13.93;;;6.70;;
5805;SDS011;2929;50.810;8.342;2023-04-26T06:43:25;9.53;;;5.17;;
5805;SDS011;2929;50.810;8.342;2023-04-26T06:46:01;12.33;;;5.70;;
5805;SDS011;2929;50.810;8.342;2023-04-26T06:48:28;13.40;;;4.93;;
5805;SDS011;2929;50.810;8.342;2023-04-26T06:50:56;14.70;;;5.60;;
5805;SDS011;2929;50.810;8.342;2023-04-26T06:53:24;10.87;;;5.07;;
5805;SDS011;2929;50.810;8.342;2023-04-26T06:55:51;13.80;;;4.57;;
5805;SDS011;2929;50.810;8.342;2023-04-26T06:58:21;13.63;;;4.70;;
5805;SDS011;2929;50.810;8.342;2023-04-26T07:00:49;16.07;;;3.90;;
5805;SDS011;2929;50.810;8.342;2023-04-26T07:03:16;8.67;;;3.93;;
5805;SDS011;2929;50.810;8.342;2023-04-26T07:05:43;19.90;;;5.10;;
5805;SDS011;2929;50.810;8.342;2023-04-26T07:08:12;17.93;;;4.10;;
5805;SDS011;2929;50.810;8.342;2023-04-26T07:10:39;10.20;;;3.93;;
5805;SDS011;2929;50.810;8.342;2023-04-26T07:13:07;16.00;;;3.70;;
5805;SDS011;2929;50.810;8.342;2023-04-26T07:15:34;11.00;;;3.60;;
5805;SDS011;2929;50.810;8.342;2023-04-26T07:18:02;21.30;;;3.60;;
5805;SDS011;2929;50.810;8.342;2023-04-26T07:20:29;14.27;;;3.73;;
5805;SDS011;2929;50.810;8.342;2023-04-26T07:22:56;10.33;;;3.10;;
5805;SDS011;2929;50.810;8.342;2023-04-26T07:25:25;18.20;;;3.23;;
5805;SDS011;2929;50.810;8.342;2023-04-26T07:27:52;8.47;;;3.80;;
5805;SDS011;2929;50.810;8.342;2023-04-26T07:30:19;14.03;;;2.90;;
5805;SDS011;2929;50.810;8.342;2023-04-26T07:32:47;8.17;;;3.10;;
5805;SDS011;2929;50.810;8.342;2023-04-26T07:35:14;7.13;;;2.80;;
5805;SDS011;2929;50.810;8.342;2023-04-26T07:37:42;10.27;;;3.20;;
5805;SDS011;2929;50.810;8.342;2023-04-26T07:40:10;7.40;;;3.27;;
5805;SDS011;2929;50.810;8.342;2023-04-26T07:42:39;14.27;;;2.83;;
5805;SDS011;2929;50.810;8.342;2023-04-26T07:45:07;11.80;;;3.27;;
5805;SDS011;2929;50.810;8.342;2023-04-26T07:47:35;12.53;;;3.67;;
5805;SDS011;2929;50.810;8.342;2023-04-26T07:50:02;10.17;;;2.50;;
5805;SDS011;2929;50.810;8.342;2023-04-26T07:52:30;8.03;;;2.53;;
5805;SDS011;2929;50.810;8.342;2023-04-26T07:54:57;6.47;;;2.97;;
5805;SDS011;2929;50.810;8.342;2023-04-26T07:57:24;6.80;;;2.80;;
5805;SDS011;2929;50.810;8.342;2023-04-26T07:59:53;7.07;;;2.80;;
5805;SDS011;2929;50.810;8.342;2023-04-26T08:02:20;12.30;;;3.53;;
5805;SDS011;2929;50.810;8.342;2023-04-26T08:04:48;7.27;;;3.13;;
5805;SDS011;2929;50.810;8.342;2023-04-26T08:07:16;12.53;;;3.30;;
5805;SDS011;2929;50.810;8.342;2023-04-26T08:09:44;8.80;;;2.63;;
5805;SDS011;2929;50.810;8.342;2023-04-26T08:12:11;5.87;;;2.50;;
5805;SDS011;2929;50.810;8.342;2023-04-26T08:14:38;5.90;;;2.13;;
5805;SDS011;2929;50.810;8.342;2023-04-26T08:17:07;8.13;;;3.00;;
5805;SDS011;2929;50.810;8.342;2023-04-26T08:19:34;9.20;;;2.43;;
5805;SDS011;2929;50.810;8.342;2023-04-26T08:22:02;5.50;;;2.10;;
5805;SDS011;2929;50.810;8.342;2023-04-26T08:24:30;5.80;;;2.50;;
5805;SDS011;2929;50.810;8.342;2023-04-26T08:26:57;5.87;;;2.57;;
5805;SDS011;2929;50.810;8.342;2023-04-26T08:29:25;11.17;;;2.93;;
5805;SDS011;2929;50.810;8.342;2023-04-26T08:31:53;5.53;;;2.10;;
5805;SDS011;2929;50.810;8.342;2023-04-26T08:34:22;7.47;;;2.50;;
5805;SDS011;2929;50.810;8.342;2023-04-26T08:36:49;7.40;;;2.27;;
5805;SDS011;2929;50.810;8.342;2023-04-26T08:39:16;5.63;;;2.10;;
5805;SDS011;2929;50.810;8.342;2023-04-26T08:41:44;8.20;;;2.50;;
5805;SDS011;2929;50.810;8.342;2023-04-26T08:44:15;3.83;;;1.90;;
5805;SDS011;2929;50.810;8.342;2023-04-26T08:46:50;11.63;;;2.77;;
5805;SDS011;2929;50.810;8.342;2023-04-26T08:49:27;4.27;;;2.47;;
5805;SDS011;2929;50.810;8.342;2023-04-26T08:52:07;4.67;;;1.80;;
5805;SDS011;2929;50.810;8.342;2023-04-26T08:54:37;5.13;;;1.57;;
5805;SDS011;2929;50.810;8.342;2023-04-26T08:57:05;2.40;;;1.40;;
5805;SDS011;2929;50.810;8.342;2023-04-26T08:59:34;8.13;;;1.63;;
5805;SDS011;2929;50.810;8.342;2023-04-26T09:02:03;2.10;;;1.60;;
5805;SDS011;2929;50.810;8.342;2023-04-26T09:04:32;5.80;;;2.40;;
5805;SDS011;2929;50.810;8.342;2023-04-26T09:07:01;4.33;;;1.93;;
5805;SDS011;2929;50.810;8.342;2023-04-26T09:09:33;5.23;;;1.97;;
5805;SDS011;2929;50.810;8.342;2023-04-26T09:12:02;5.13;;;1.83;;
5805;SDS011;2929;50.810;8.342;2023-04-26T09:14:30;5.33;;;1.73;;
5805;SDS011;2929;50.810;8.342;2023-04-26T09:16:57;5.97;;;1.67;;
5805;SDS011;2929;50.810;8.342;2023-04-26T09:19:35;5.67;;;2.10;;
5805;SDS011;2929;50.810;8.342;2023-04-26T09:22:03;9.93;;;2.37;;
5805;SDS011;2929;50.810;8.342;2023-04-26T09:24:44;5.03;;;2.10;;
5805;SDS011;2929;50.810;8.342;2023-04-26T09:27:13;4.70;;;1.60;;
5805;SDS011;2929;50.810;8.342;2023-04-26T09:29:48;3.60;;;1.40;;
5805;SDS011;2929;50.810;8.342;2023-04-26T09:32:23;4.93;;;1.80;;
5805;SDS011;2929;50.810;8.342;2023-04-26T09:34:53;1.73;;;1.33;;
5805;SDS011;2929;50.810;8.342;2023-04-26T09:37:21;6.63;;;1.60;;
5805;SDS011;2929;50.810;8.342;2023-04-26T09:39:48;13.57;;;2.53;;
5805;SDS011;2929;50.810;8.342;2023-04-26T09:42:15;11.30;;;2.10;;
5805;SDS011;2929;50.810;8.342;2023-04-26T09:44:45;11.30;;;2.43;;
5805;SDS011;2929;50.810;8.342;2023-04-26T09:47:12;3.53;;;1.70;;
5805;SDS011;2929;50.810;8.342;2023-04-26T09:49:43;5.90;;;2.33;;
5805;SDS011;2929;50.810;8.342;2023-04-26T09:52:14;2.50;;;2.00;;
5805;SDS011;2929;50.810;8.342;2023-04-26T09:54:45;8.77;;;2.20;;
5805;SDS011;2929;50.810;8.342;2023-04-26T09:57:13;9.63;;;2.37;;
5805;SDS011;2929;50.810;8.342;2023-04-26T09:59:42;18.83;;;2.63;;
5805;SDS011;2929;50.810;8.342;2023-04-26T10:02:14;7.33;;;2.23;;
5805;SDS011;2929;50.810;8.342;2023-04-26T10:04:44;6.77;;;1.73;;
5805;SDS011;2929;50.810;8.342;2023-04-26T10:07:15;8.13;;;2.00;;
5805;SDS011;2929;50.810;8.342;2023-04-26T10:09:43;8.70;;;2.37;;
5805;SDS011;2929;50.810;8.342;2023-04-26T10:12:12;6.00;;;2.37;;
5805;SDS011;2929;50.810;8.342;2023-04-26T10:14:41;5.30;;;2.07;;
5805;SDS011;2929;50.810;8.342;2023-04-26T10:17:10;5.30;;;2.30;;
5805;SDS011;2929;50.810;8.342;2023-04-26T10:19:38;5.47;;;2.50;;
5805;SDS011;2929;50.810;8.342;2023-04-26T10:22:10;8.63;;;2.07;;
5805;SDS011;2929;50.810;8.342;2023-04-26T10:24:42;3.60;;;1.70;;
5805;SDS011;2929;50.810;8.342;2023-04-26T10:27:10;8.30;;;2.37;;
5805;SDS011;2929;50.810;8.342;2023-04-26T10:38:30;3.13;;;2.03;;
5805;SDS011;2929;50.810;8.342;2023-04-26T10:43:54;8.40;;;2.77;;
5805;SDS011;2929;50.810;8.342;2023-04-26T10:46:32;6.43;;;3.03;;
5805;SDS011;2929;50.810;8.342;2023-04-26T10:49:12;4.37;;;2.00;;
5805;SDS011;2929;50.810;8.342;2023-04-26T10:57:45;4.20;;;2.23;;
5805;SDS011;2929;50.810;8.342;2023-04-26T11:03:02;3.23;;;1.67;;
5805;SDS011;2929;50.810;8.342;2023-04-26T11:05:38;10.40;;;2.43;;
5805;SDS011;2929;50.810;8.342;2023-04-26T11:08:14;7.80;;;2.47;;
5805;SDS011;2929;50.810;8.342;2023-04-26T11:10:44;5.03;;;2.43;;
5805;SDS011;2929;50.810;8.342;2023-04-26T11:13:15;7.77;;;2.43;;
5805;SDS011;2929;50.810;8.342;2023-04-26T11:15:43;7.30;;;2.63;;
5805;SDS011;2929;50.810;8.342;2023-04-26T11:18:12;2.90;;;1.80;;
5805;SDS011;2929;50.810;8.342;2023-04-26T11:20:39;2.67;;;1.90;;
5805;SDS011;2929;50.810;8.342;2023-04-26T11:23:06;6.37;;;2.10;;
5805;SDS011;2929;50.810;8.342;2023-04-26T11:25:34;5.87;;;2.53;;
5805;SDS011;2929;50.810;8.342;2023-04-26T11:28:06;6.47;;;2.50;;
5805;SDS011;2929;50.810;8.342;2023-04-26T11:30:33;8.13;;;2.30;;
5805;SDS011;2929;50.810;8.342;2023-04-26T11:33:00;9.17;;;2.40;;
5805;SDS011;2929;50.810;8.342;2023-04-26T11:35:29;5.23;;;1.87;;
5805;SDS011;2929;50.810;8.342;2023-04-26T11:38:02;7.37;;;2.43;;
5805;SDS011;2929;50.810;8.342;2023-04-26T11:40:31;4.80;;;2.13;;
5805;SDS011;2929;50.810;8.342;2023-04-26T11:43:00;7.93;;;2.10;;
5805;SDS011;2929;50.810;8.342;2023-04-26T11:45:31;10.50;;;2.37;;
5805;SDS011;2929;50.810;8.342;2023-04-26T11:48:00;9.43;;;3.67;;
5805;SDS011;2929;50.810;8.342;2023-04-26T11:50:30;8.40;;;2.20;;
5805;SDS011;2929;50.810;8.342;2023-04-26T11:52:58;11.73;;;2.33;;
5805;SDS011;2929;50.810;8.342;2023-04-26T11:55:27;2.90;;;2.10;;
5805;SDS011;2929;50.810;8.342;2023-04-26T11:57:54;4.70;;;2.80;;
5805;SDS011;2929;50.810;8.342;2023-04-26T12:00:23;20.40;;;3.13;;
5805;SDS011;2929;50.810;8.342;2023-04-26T12:02:52;10.60;;;3.43;;
5805;SDS011;2929;50.810;8.342;2023-04-26T12:05:21;8.53;;;4.43;;
5805;SDS011;2929;50.810;8.342;2023-04-26T12:07:50;4.43;;;2.30;;
5805;SDS011;2929;50.810;8.342;2023-04-26T12:10:21;13.60;;;4.30;;
5805;SDS011;2929;50.810;8.342;2023-04-26T12:12:51;6.27;;;3.20;;
5805;SDS011;2929;50.810;8.342;2023-04-26T12:15:21;5.37;;;2.80;;
5805;SDS011;2929;50.810;8.342;2023-04-26T12:17:55;5.80;;;2.50;;
5805;SDS011;2929;50.810;8.342;2023-04-26T12:20:27;10.80;;;2.57;;
5805;SDS011;2929;50.810;8.342;2023-04-26T12:22:57;5.13;;;1.87;;
5805;SDS011;2929;50.810;8.342;2023-04-26T12:25:28;5.03;;;1.90;;
5805;SDS011;2929;50.810;8.342;2023-04-26T12:27:56;2.90;;;1.60;;
5805;SDS011;2929;50.810;8.342;2023-04-26T12:30:24;3.63;;;2.17;;
5805;SDS011;2929;50.810;8.342;2023-04-26T12:33:01;8.40;;;1.80;;
5805;SDS011;2929;50.810;8.342;2023-04-26T12:35:29;4.80;;;2.00;;
5805;SDS011;2929;50.810;8.342;2023-04-26T12:37:56;7.30;;;2.10;;
5805;SDS011;2929;50.810;8.342;2023-04-26T12:40:25;4.60;;;2.57;;
5805;SDS011;2929;50.810;8.342;2023-04-26T12:42:53;5.43;;;1.80;;
5805;SDS011;2929;50.810;8.342;2023-04-26T12:45:21;7.47;;;1.67;;
5805;SDS011;2929;50.810;8.342;2023-04-26T12:47:50;10.13;;;2.40;;
5805;SDS011;2929;50.810;8.342;2023-04-26T12:50:19;5.83;;;1.87;;
5805;SDS011;2929;50.810;8.342;2023-04-26T12:52:46;4.77;;;1.90;;
5805;SDS011;2929;50.810;8.342;2023-04-26T12:55:14;4.17;;;2.20;;
5805;SDS011;2929;50.810;8.342;2023-04-26T12:57:42;3.00;;;1.90;;
5805;SDS011;2929;50.810;8.342;2023-04-26T13:00:11;9.67;;;2.10;;
5805;SDS011;2929;50.810;8.342;2023-04-26T13:02:39;7.93;;;2.70;;
5805;SDS011;2929;50.810;8.342;2023-04-26T13:05:07;8.20;;;2.90;;
5805;SDS011;2929;50.810;8.342;2023-04-26T13:07:38;3.17;;;2.57;;
5805;SDS011;2929;50.810;8.342;2023-04-26T13:10:06;3.70;;;2.17;;
5805;SDS011;2929;50.810;8.342;2023-04-26T13:12:35;7.33;;;2.50;;
5805;SDS011;2929;50.810;8.342;2023-04-26T13:15:04;6.20;;;1.90;;
5805;SDS011;2929;50.810;8.342;2023-04-26T13:17:32;10.53;;;2.53;;
5805;SDS011;2929;50.810;8.342;2023-04-26T13:20:01;9.40;;;2.50;;
5805;SDS011;2929;50.810;8.342;2023-04-26T13:22:30;5.10;;;1.93;;
5805;SDS011;2929;50.810;8.342;2023-04-26T13:24:59;6.03;;;2.20;;
5805;SDS011;2929;50.810;8.342;2023-04-26T13:27:26;4.67;;;1.90;;
5805;SDS011;2929;50.810;8.342;2023-04-26T13:29:54;8.00;;;2.00;;
5805;SDS011;2929;50.810;8.342;2023-04-26T13:32:21;3.13;;;1.63;;
5805;SDS011;2929;50.810;8.342;2023-04-26T13:34:48;3.43;;;1.90;;
5805;SDS011;2929;50.810;8.342;2023-04-26T13:37:16;6.47;;;2.00;;
5805;SDS011;2929;50.810;8.342;2023-04-26T13:39:45;6.33;;;1.93;;
5805;SDS011;2929;50.810;8.342;2023-04-26T13:42:14;5.53;;;1.67;;
5805;SDS011;2929;50.810;8.342;2023-04-26T13:44:42;5.03;;;2.07;;
5805;SDS011;2929;50.810;8.342;2023-04-26T13:47:09;7.40;;;1.97;;
5805;SDS011;2929;50.810;8.342;2023-04-26T13:49:37;7.13;;;1.83;;
5805;SDS011;2929;50.810;8.342;2023-04-26T13:52:05;6.40;;;2.10;;
5805;SDS011;2929;50.810;8.342;2023-04-26T13:54:32;3.73;;;2.03;;
5805;SDS011;2929;50.810;8.342;2023-04-26T13:57:01;7.97;;;2.40;;
5805;SDS011;2929;50.810;8.342;2023-04-26T13:59:30;5.00;;;2.00;;
5805;SDS011;2929;50.810;8.342;2023-04-26T14:01:57;5.63;;;2.00;;
5805;SDS011;2929;50.810;8.342;2023-04-26T14:04:25;4.20;;;2.07;;
5805;SDS011;2929;50.810;8.342;2023-04-26T14:06:52;6.73;;;2.60;;
5805;SDS011;2929;50.810;8.342;2023-04-26T14:09:19;6.80;;;1.90;;
5805;SDS011;2929;50.810;8.342;2023-04-26T14:11:46;3.30;;;1.83;;
5805;SDS011;2929;50.810;8.342;2023-04-26T14:14:13;4.60;;;1.90;;
5805;SDS011;2929;50.810;8.342;2023-04-26T14:16:42;3.07;;;1.80;;
5805;SDS011;2929;50.810;8.342;2023-04-26T14:19:09;4.03;;;1.73;;
5805;SDS011;2929;50.810;8.342;2023-04-26T14:21:39;8.67;;;2.20;;
5805;SDS011;2929;50.810;8.342;2023-04-26T14:24:07;9.73;;;2.10;;
5805;SDS011;2929;50.810;8.342;2023-04-26T14:26:35;5.20;;;1.90;;
5805;SDS011;2929;50.810;8.342;2023-04-26T14:29:02;6.90;;;2.60;;
5805;SDS011;2929;50.810;8.342;2023-04-26T14:31:30;3.27;;;1.73;;
5805;SDS011;2929;50.810;8.342;2023-04-26T14:34:00;8.20;;;2.13;;
5805;SDS011;2929;50.810;8.342;2023-04-26T14:36:27;5.50;;;2.77;;
5805;SDS011;2929;50.810;8.342;2023-04-26T14:38:56;7.90;;;2.30;;
5805;SDS011;2929;50.810;8.342;2023-04-26T14:41:23;7.60;;;2.23;;
5805;SDS011;2929;50.810;8.342;2023-04-26T14:43:50;2.30;;;2.07;;
5805;SDS011;2929;50.810;8.342;2023-04-26T14:46:18;10.00;;;2.57;;
5805;SDS011;2929;50.810;8.342;2023-04-26T14:48:45;10.17;;;2.20;;
5805;SDS011;2929;50.810;8.342;2023-04-26T14:51:13;7.30;;;2.13;;
5805;SDS011;2929;50.810;8.342;2023-04-26T14:53:41;4.30;;;2.00;;
5805;SDS011;2929;50.810;8.342;2023-04-26T14:56:08;5.87;;;2.40;;
5805;SDS011;2929;50.810;8.342;2023-04-26T14:58:35;5.97;;;2.50;;
5805;SDS011;2929;50.810;8.342;2023-04-26T15:01:02;5.37;;;2.13;;
5805;SDS011;2929;50.810;8.342;2023-04-26T15:03:29;7.13;;;2.27;;
5805;SDS011;2929;50.810;8.342;2023-04-26T15:05:57;5.77;;;2.10;;
5805;SDS011;2929;50.810;8.342;2023-04-26T15:08:26;8.53;;;2.10;;
5805;SDS011;2929;50.810;8.342;2023-04-26T15:10:54;4.83;;;2.60;;
5805;SDS011;2929;50.810;8.342;2023-04-26T15:13:21;7.93;;;2.37;;
5805;SDS011;2929;50.810;8.342;2023-04-26T15:15:48;6.00;;;2.40;;
5805;SDS011;2929;50.810;8.342;2023-04-26T15:18:17;5.80;;;2.67;;
5805;SDS011;2929;50.810;8.342;2023-04-26T15:20:44;5.47;;;2.40;;
5805;SDS011;2929;50.810;8.342;2023-04-26T15:23:11;4.53;;;1.90;;
5805;SDS011;2929;50.810;8.342;2023-04-26T15:25:40;3.37;;;2.20;;
5805;SDS011;2929;50.810;8.342;2023-04-26T15:28:07;6.90;;;2.40;;
5805;SDS011;2929;50.810;8.342;2023-04-26T15:30:34;7.33;;;2.47;;
5805;SDS011;2929;50.810;8.342;2023-04-26T15:33:01;9.03;;;1.87;;
5805;SDS011;2929;50.810;8.342;2023-04-26T15:35:31;6.63;;;2.40;;
5805;SDS011;2929;50.810;8.342;2023-04-26T15:37:59;4.93;;;2.40;;
5805;SDS011;2929;50.810;8.342;2023-04-26T15:40:26;7.37;;;2.57;;